Time;durP1;ratioP1;P1;durP2;ratioP2;P2;SDS_P1;SDS_P2;PMS_P1;PMS_P2;Temp;Humidity;BMP_temperature;BMP_pressure;BME280_temperature;BME280_humidity;BME280_pressure;Samples;Min_cycle;Max_cycle;Signal;HPM_P1;HPM_P2
2021/07/15 00:01:08;;;;;;;5.30;3.83;;;;;;;18.89;100.00;100609.22;5036254;28;20435;-70
2021/07/15 00:03:36;;;;;;;5.37;3.93;;;;;;;18.93;100.00;100608.53;5036226;28;20454;-70
2021/07/15 00:06:05;;;;;;;6.50;3.70;;;;;;;18.94;100.00;100621.09;5036152;28;20479;-70
2021/07/15 00:08:31;;;;;;;7.30;4.00;;;;;;;18.89;100.00;100609.22;5035988;28;20447;-70
2021/07/15 00:11:00;;;;;;;7.90;4.10;;;;;;;18.84;100.00;100612.25;5036012;28;20826;-70
2021/07/15 00:13:27;;;;;;;8.23;4.70;;;;;;;18.77;100.00;100609.34;5036010;28;20451;-70
2021/07/15 00:15:56;;;;;;;5.47;4.10;;;;;;;18.76;100.00;100621.47;5035902;28;20523;-70
2021/07/15 00:18:26;;;;;;;8.97;4.93;;;;;;;18.78;100.00;100616.44;5035923;28;20454;-70
2021/07/15 00:20:55;;;;;;;6.27;4.63;;;;;;;18.77;100.00;100617.59;5042567;28;20470;-70
2021/07/15 00:23:22;;;;;;;7.10;4.53;;;;;;;18.76;100.00;100610.50;5035618;28;20955;-71
2021/07/15 00:25:49;;;;;;;6.40;4.07;;;;;;;18.67;100.00;100612.59;5035801;28;20439;-71
2021/07/15 00:28:17;;;;;;;6.57;4.20;;;;;;;18.67;100.00;100601.63;5035736;28;20443;-71
2021/07/15 00:30:44;;;;;;;5.37;4.60;;;;;;;18.68;100.00;100608.69;5035310;28;20473;-71
2021/07/15 00:33:11;;;;;;;7.73;5.33;;;;;;;18.69;100.00;100615.00;5035633;28;20447;-70
2021/07/15 00:35:38;;;;;;;6.53;4.50;;;;;;;18.62;100.00;100610.13;5035548;28;20478;-70
2021/07/15 00:38:06;;;;;;;6.60;4.73;;;;;;;18.61;100.00;100603.03;5035535;28;20443;-71
2021/07/15 00:40:34;;;;;;;6.47;4.40;;;;;;;18.57;100.00;100607.66;5035115;28;21011;-71
2021/07/15 00:43:01;;;;;;;8.00;4.73;;;;;;;18.54;100.00;100602.84;5034979;28;20438;-70
2021/07/15 00:45:27;;;;;;;5.30;3.80;;;;;;;18.52;100.00;100611.47;5035446;28;20442;-70
2021/07/15 00:47:54;;;;;;;6.80;4.03;;;;;;;18.55;100.00;100620.91;5035043;28;20936;-71
2021/07/15 00:50:22;;;;;;;6.33;4.03;;;;;;;18.53;100.00;100617.72;5035281;28;20460;-72
2021/07/15 00:52:50;;;;;;;6.83;4.33;;;;;;;18.48;100.00;100613.31;5035285;28;20518;-72
2021/07/15 00:55:21;;;;;;;7.73;4.50;;;;;;;18.39;100.00;100618.97;5035199;28;20574;-72
2021/07/15 00:57:49;;;;;;;8.97;4.50;;;;;;;18.41;100.00;100626.84;5035499;28;20424;-72
2021/07/15 01:00:17;;;;;;;7.17;5.00;;;;;;;18.45;100.00;100632.41;5034839;28;20822;-74
2021/07/15 01:02:44;;;;;;;7.37;5.20;;;;;;;18.41;100.00;100627.63;5034787;28;20862;-73
2021/07/15 01:05:15;;;;;;;6.77;4.13;;;;;;;18.36;100.00;100635.31;5035066;28;20439;-73
2021/07/15 01:07:41;;;;;;;4.80;4.20;;;;;;;18.31;100.00;100643.81;5035087;28;20450;-72
2021/07/15 01:10:10;;;;;;;5.63;3.60;;;;;;;18.30;100.00;100654.00;5034539;28;20474;-73
2021/07/15 01:12:51;;;;;;;7.27;5.10;;;;;;;18.27;100.00;100660.16;5034888;28;20458;-73
2021/07/15 01:15:21;;;;;;;4.07;3.30;;;;;;;18.18;100.00;100650.50;5034794;28;20467;-72
2021/07/15 01:17:58;;;;;;;6.77;4.27;;;;;;;18.19;100.00;100654.84;5034871;28;20530;-72
2021/07/15 01:21:00;;;;;;;6.23;4.17;;;;;;;18.14;100.00;100645.72;5034435;28;20849;-72
2021/07/15 01:23:54;;;;;;;4.50;3.40;;;;;;;18.15;100.00;100657.50;4992955;28;20454;-72
2021/07/15 01:26:44;;;;;;;8.50;4.93;;;;;;;18.16;100.00;100670.06;5034661;28;20428;-73
2021/07/15 01:29:19;;;;;;;6.73;4.27;;;;;;;18.14;100.00;100677.84;5034407;28;20506;-72
2021/07/15 01:31:50;;;;;;;5.63;3.93;;;;;;;18.11;100.00;100667.59;5034611;28;20435;-72
2021/07/15 01:34:20;;;;;;;5.53;3.63;;;;;;;18.05;100.00;100655.25;5034466;28;20467;-72
2021/07/15 01:36:50;;;;;;;7.37;4.30;;;;;;;17.98;100.00;100635.91;5034472;28;20435;-73
2021/07/15 01:39:20;;;;;;;7.27;4.10;;;;;;;17.85;100.00;100633.19;5034619;28;20478;-72
2021/07/15 01:41:51;;;;;;;6.27;3.97;;;;;;;17.90;100.00;100613.75;5034422;28;20454;-72
2021/07/15 01:44:23;;;;;;;7.30;4.90;;;;;;;17.92;100.00;100607.13;5034049;28;20442;-71
2021/07/15 01:46:52;;;;;;;7.00;4.33;;;;;;;17.88;100.00;100618.81;5034535;28;20431;-72
2021/07/15 01:49:20;;;;;;;5.90;3.97;;;;;;;17.83;100.00;100621.78;5034122;28;20467;-72
2021/07/15 01:51:48;;;;;;;5.23;4.33;;;;;;;17.78;100.00;100630.25;5034126;28;20443;-72
2021/07/15 01:54:14;;;;;;;8.27;4.50;;;;;;;17.79;100.00;100634.56;5033299;28;20442;-72
2021/07/15 01:56:42;;;;;;;5.40;3.73;;;;;;;17.80;100.00;100625.22;5033754;28;20863;-72
2021/07/15 01:59:13;;;;;;;7.33;4.27;;;;;;;17.69;100.00;100612.34;5033912;28;20478;-72
2021/07/15 02:01:40;;;;;;;6.20;3.97;;;;;;;17.63;100.00;100603.56;5033759;28;20803;-72
2021/07/15 02:04:09;;;;;;;5.60;3.77;;;;;;;17.72;100.00;100609.69;5033927;28;20493;-72
2021/07/15 02:06:37;;;;;;;7.50;4.60;;;;;;;17.76;100.00;100604.34;5033844;28;20443;-72
2021/07/15 02:09:08;;;;;;;5.63;4.13;;;;;;;17.77;100.00;100593.03;5033644;28;20490;-72
2021/07/15 02:11:35;;;;;;;5.80;3.93;;;;;;;17.79;100.00;100609.91;5033487;28;20462;-72
2021/07/15 02:14:04;;;;;;;8.57;4.20;;;;;;;17.75;100.00;100608.22;5033755;28;20871;-72
2021/07/15 02:16:32;;;;;;;5.27;3.93;;;;;;;17.74;100.00;100618.38;5033341;28;20490;-72
2021/07/15 02:19:00;;;;;;;6.50;4.50;;;;;;;17.70;100.00;100614.72;5040424;28;20466;-73
2021/07/15 02:21:29;;;;;;;6.70;4.23;;;;;;;17.70;100.00;100616.66;5033493;28;20463;-72
2021/07/15 02:23:57;;;;;;;5.80;3.90;;;;;;;17.68;100.00;100616.22;5033696;28;20455;-72
2021/07/15 02:26:25;;;;;;;7.20;3.70;;;;;;;17.63;100.00;100618.06;5033466;28;20860;-73
2021/07/15 02:28:52;;;;;;;7.50;4.33;;;;;;;17.56;100.00;100617.84;5033342;28;20462;-72
2021/07/15 02:31:26;;;;;;;5.37;3.63;;;;;;;17.58;100.00;100623.00;5033284;28;20813;-72
2021/07/15 02:33:58;;;;;;;7.53;4.33;;;;;;;17.46;100.00;100609.34;5033486;28;20438;-73
2021/07/15 02:36:29;;;;;;;8.83;4.70;;;;;;;17.43;100.00;100615.50;5033411;28;20499;-72
2021/07/15 02:38:59;;;;;;;6.70;4.43;;;;;;;17.45;100.00;100618.69;5033347;28;20439;-73
2021/07/15 02:41:25;;;;;;;5.20;3.30;;;;;;;17.42;100.00;100613.91;5033034;28;20447;-73
2021/07/15 02:43:52;;;;;;;5.60;3.63;;;;;;;17.36;100.00;100607.88;5033340;28;20443;-73
2021/07/15 02:46:18;;;;;;;8.00;3.87;;;;;;;17.28;100.00;100609.59;5033282;28;20450;-72
2021/07/15 02:48:45;;;;;;;5.37;3.50;;;;;;;17.24;100.00;100608.69;5033170;28;20447;-72
2021/07/15 02:51:11;;;;;;;10.83;3.80;;;;;;;17.23;100.00;100612.59;5033207;28;20450;-73
2021/07/15 02:53:39;;;;;;;6.57;4.30;;;;;;;17.25;100.00;100621.22;5033218;28;20439;-72
2021/07/15 02:56:19;;;;;;;4.13;2.50;;;;;;;17.23;100.00;100620.78;5033070;28;20490;-72
2021/07/15 02:58:57;;;;;;;4.40;3.00;;;;;;;17.27;100.00;100629.91;5033090;28;20427;-72
2021/07/15 03:01:28;;;;;;;4.77;3.30;;;;;;;17.20;100.00;100629.69;5033166;28;20434;-72
2021/07/15 03:04:00;;;;;;;4.70;3.07;;;;;;;17.22;100.00;100630.16;5033168;28;20431;-72
2021/07/15 03:06:32;;;;;;;9.50;3.30;;;;;;;17.38;100.00;100644.72;5037316;28;20427;-72
2021/07/15 03:09:03;;;;;;;4.73;3.00;;;;;;;17.45;100.00;100644.16;5037229;28;20845;-72
2021/07/15 03:11:37;;;;;;;4.67;2.70;;;;;;;17.53;100.00;100648.69;5037248;28;20427;-72
2021/07/15 03:14:05;;;;;;;3.93;3.27;;;;;;;17.39;100.00;100643.56;5037224;28;20427;-72
2021/07/15 03:16:33;;;;;;;4.07;3.27;;;;;;;17.45;100.00;100651.56;5037052;28;20483;-72
2021/07/15 03:19:03;;;;;;;4.10;2.60;;;;;;;17.52;100.00;100657.25;5037008;28;20466;-72
2021/07/15 03:21:30;;;;;;;6.53;3.53;;;;;;;17.50;100.00;100646.63;5036759;28;20451;-72
2021/07/15 03:23:58;;;;;;;4.70;3.20;;;;;;;17.46;100.00;100644.94;5037018;28;20504;-72
2021/07/15 03:26:27;;;;;;;7.13;4.37;;;;;;;17.46;100.00;100642.19;5036566;28;20971;-72
2021/07/15 03:28:55;;;;;;;5.53;3.30;;;;;;;17.50;100.00;100634.88;5036663;28;20515;-72
2021/07/15 03:31:23;;;;;;;5.00;3.10;;;;;;;17.57;100.00;100633.13;5036922;28;20485;-72
2021/07/15 03:33:51;;;;;;;4.27;3.03;;;;;;;17.61;100.00;100638.72;5036803;28;20451;-72
2021/07/15 03:36:18;;;;;;;8.90;2.70;;;;;;;17.64;100.00;100647.06;5036670;28;20483;-72
2021/07/15 03:38:46;;;;;;;6.97;3.37;;;;;;;17.66;100.00;100649.44;5036605;28;20446;-72
2021/07/15 03:41:13;;;;;;;2.53;2.13;;;;;;;17.70;100.00;100646.81;5036655;28;20466;-72
2021/07/15 03:43:44;;;;;;;3.13;2.40;;;;;;;17.69;100.00;100645.22;5036646;28;20518;-72
2021/07/15 03:46:12;;;;;;;3.93;2.50;;;;;;;17.67;100.00;100648.31;5036632;28;20438;-72
2021/07/15 03:48:40;;;;;;;6.20;3.20;;;;;;;17.60;100.00;100662.56;5036167;28;20945;-72
2021/07/15 03:51:09;;;;;;;2.87;2.20;;;;;;;17.65;100.00;100656.84;5036084;28;20451;-72
2021/07/15 03:53:37;;;;;;;8.33;3.10;;;;;;;17.67;100.00;100658.47;5036353;28;20457;-72
2021/07/15 03:56:05;;;;;;;5.07;3.17;;;;;;;17.64;100.00;100643.50;5035981;28;21027;-72
2021/07/15 03:58:32;;;;;;;4.00;3.13;;;;;;;17.71;100.00;100649.22;5036363;28;20473;-72
2021/07/15 04:01:03;;;;;;;4.30;3.00;;;;;;;17.74;100.00;100655.94;5035998;28;20526;-72
2021/07/15 04:03:32;;;;;;;4.60;3.07;;;;;;;17.76;100.00;100649.00;5036302;28;20781;-72
2021/07/15 04:06:00;;;;;;;4.53;2.80;;;;;;;17.76;100.00;100649.00;5036208;28;20470;-72
2021/07/15 04:08:28;;;;;;;4.30;2.60;;;;;;;17.67;100.00;100640.09;5036139;28;20451;-72
2021/07/15 04:10:59;;;;;;;5.63;3.47;;;;;;;17.59;100.00;100641.81;5035979;28;20455;-72
2021/07/15 04:13:27;;;;;;;5.47;2.33;;;;;;;17.55;100.00;100640.91;5036122;28;20817;-71
2021/07/15 04:16:27;;;;;;;3.10;2.40;;;;;;;17.45;100.00;100637.88;5034771;28;21022;-71
2021/07/15 04:18:58;;;;;;;3.87;2.20;;;;;;;17.52;100.00;100632.59;5039065;28;20461;-72
2021/07/15 04:21:26;;;;;;;3.90;2.77;;;;;;;17.53;100.00;100632.25;5036116;28;20432;-72
2021/07/15 04:23:55;;;;;;;5.13;2.20;;;;;;;17.53;100.00;100636.91;5035882;28;20446;-72
2021/07/15 04:26:24;;;;;;;4.07;2.33;;;;;;;17.63;100.00;100641.94;5035847;28;20458;-72
2021/07/15 04:28:51;;;;;;;3.93;2.97;;;;;;;17.71;100.00;100654.69;5035519;28;20462;-72
2021/07/15 04:31:54;;;;;;;5.40;2.83;;;;;;;17.77;100.00;100660.75;5037072;28;20439;-72
2021/07/15 04:34:26;;;;;;;4.27;2.40;;;;;;;17.87;100.00;100657.50;5010041;28;20486;-72
2021/07/15 04:36:54;;;;;;;4.43;2.03;;;;;;;17.94;100.00;100659.66;5035286;28;20998;-71
2021/07/15 04:39:23;;;;;;;2.40;1.97;;;;;;;18.03;100.00;100661.09;5035433;28;20463;-71
2021/07/15 04:41:50;;;;;;;3.60;2.40;;;;;;;18.05;100.00;100660.75;5035495;28;20487;-71
2021/07/15 04:44:17;;;;;;;3.70;2.20;;;;;;;18.11;100.00;100657.41;5035463;28;20504;-71
2021/07/15 04:46:43;;;;;;;4.73;2.30;;;;;;;18.12;100.00;100649.97;5035410;28;20442;-71
2021/07/15 04:49:10;;;;;;;1.90;1.70;;;;;;;18.18;100.00;100651.31;5035289;28;20455;-71
2021/07/15 04:51:41;;;;;;;2.53;1.77;;;;;;;18.24;100.00;100651.84;5035351;28;20821;-71
2021/07/15 04:54:09;;;;;;;2.77;2.10;;;;;;;18.34;100.00;100648.59;5035295;28;20502;-71
2021/07/15 04:56:36;;;;;;;3.00;2.27;;;;;;;18.36;100.00;100652.56;5035230;28;20487;-71
2021/07/15 04:59:04;;;;;;;4.47;2.67;;;;;;;18.44;100.00;100658.25;5035094;28;20819;-71
2021/07/15 05:01:31;;;;;;;3.83;2.40;;;;;;;18.49;100.00;100666.22;5034841;28;20451;-71
2021/07/15 05:03:58;;;;;;;3.17;2.40;;;;;;;18.53;100.00;100665.16;5035128;28;20450;-71
2021/07/15 05:06:24;;;;;;;1.73;1.30;;;;;;;18.60;100.00;100670.84;5035130;28;20807;-71
2021/07/15 05:08:52;;;;;;;3.63;2.00;;;;;;;18.63;100.00;100663.84;5034885;28;20479;-71
2021/07/15 05:11:19;;;;;;;2.60;1.70;;;;;;;18.69;100.00;100650.69;5034657;28;20967;-71
2021/07/15 05:13:46;;;;;;;2.90;2.10;;;;;;;18.73;100.00;100657.09;5034621;28;20960;-70
2021/07/15 05:16:12;;;;;;;1.80;1.70;;;;;;;18.83;100.00;100671.06;5034798;28;20509;-69
2021/07/15 05:18:38;;;;;;;5.60;2.20;;;;;;;18.90;100.00;100668.50;5034775;28;20807;-69
2021/07/15 05:21:05;;;;;;;4.10;2.17;;;;;;;18.95;100.00;100672.91;5034828;28;20800;-70
2021/07/15 05:23:32;;;;;;;3.93;2.80;;;;;;;19.00;100.00;100671.84;5034783;28;20439;-70
2021/07/15 05:26:00;;;;;;;2.80;1.90;;;;;;;19.09;100.00;100676.00;5034308;28;20865;-69
2021/07/15 05:28:26;;;;;;;2.57;1.83;;;;;;;19.14;100.00;100677.66;5034603;28;20439;-69
2021/07/15 05:30:53;;;;;;;2.30;2.00;;;;;;;19.15;100.00;100685.53;5034468;28;20482;-69
2021/07/15 05:33:20;;;;;;;2.33;1.90;;;;;;;19.18;100.00;100684.03;5034554;28;20431;-69
2021/07/15 05:35:46;;;;;;;3.37;2.07;;;;;;;19.13;100.00;100684.31;5034341;28;20995;-69
2021/07/15 05:38:13;;;;;;;3.63;2.30;;;;;;;19.18;99.71;100686.00;5034404;28;20447;-70
2021/07/15 05:40:39;;;;;;;2.43;2.00;;;;;;;19.23;97.98;100683.75;5034570;28;20471;-69
2021/07/15 05:43:07;;;;;;;2.97;2.23;;;;;;;19.27;98.08;100681.91;5034032;28;20446;-69
2021/07/15 05:45:34;;;;;;;2.43;1.40;;;;;;;19.36;99.29;100681.69;5034312;28;20444;-69
2021/07/15 05:48:00;;;;;;;2.87;1.57;;;;;;;19.48;100.00;100694.50;5034237;28;20454;-69
2021/07/15 05:50:27;;;;;;;1.80;1.50;;;;;;;19.58;100.00;100704.97;5034172;28;20467;-69
2021/07/15 05:52:53;;;;;;;2.43;1.57;;;;;;;19.65;99.40;100699.63;5033925;28;20940;-70
2021/07/15 05:55:20;;;;;;;3.37;2.13;;;;;;;19.74;99.24;100705.72;5033298;28;20455;-70
2021/07/15 05:57:46;;;;;;;1.70;1.47;;;;;;;19.85;99.39;100705.97;5032750;28;20478;-72
2021/07/15 06:00:15;;;;;;;2.40;1.57;;;;;;;19.91;98.34;100704.50;5033696;28;20980;-71
2021/07/15 06:02:41;;;;;;;1.40;1.30;;;;;;;19.98;96.98;100696.41;5034014;28;20450;-72
2021/07/15 06:05:09;;;;;;;3.23;1.70;;;;;;;20.07;95.97;100709.94;5033935;28;20443;-72
2021/07/15 06:07:36;;;;;;;1.43;1.23;;;;;;;20.18;96.28;100716.44;5033897;28;20442;-73
2021/07/15 06:10:03;;;;;;;2.23;1.20;;;;;;;20.27;98.09;100717.00;5033796;28;20463;-72
2021/07/15 06:12:29;;;;;;;1.50;1.30;;;;;;;20.35;98.38;100723.44;5033885;28;20466;-72
2021/07/15 06:14:56;;;;;;;2.47;1.77;;;;;;;20.37;96.61;100719.19;5033873;28;20446;-74
2021/07/15 06:17:25;;;;;;;1.50;1.40;;;;;;;20.33;95.83;100712.03;5040668;28;20493;-72
2021/07/15 06:19:52;;;;;;;2.37;1.57;;;;;;;20.23;95.10;100713.41;5033310;28;20459;-71
2021/07/15 06:22:20;;;;;;;2.10;1.90;;;;;;;20.23;95.88;100707.91;5033881;28;20450;-71
2021/07/15 06:24:46;;;;;;;1.80;1.23;;;;;;;20.36;95.21;100701.09;5033410;28;21002;-70
2021/07/15 06:27:13;;;;;;;1.90;1.70;;;;;;;20.44;94.80;100698.47;5033581;28;20435;-71
2021/07/15 06:29:39;;;;;;;1.97;1.53;;;;;;;20.51;94.07;100698.63;5032679;28;20478;-71
2021/07/15 06:32:06;;;;;;;1.70;1.40;;;;;;;20.56;93.97;100703.84;5033395;28;20474;-72
2021/07/15 06:34:34;;;;;;;2.53;1.60;;;;;;;20.56;93.83;100695.56;5033425;28;20447;-71
2021/07/15 06:37:03;;;;;;;1.77;1.20;;;;;;;20.52;92.28;100701.00;5033316;28;20486;-71
2021/07/15 06:39:29;;;;;;;1.60;1.30;;;;;;;20.62;92.26;100710.59;5032476;28;20474;-71
2021/07/15 06:41:57;;;;;;;1.60;1.50;;;;;;;20.69;90.97;100710.75;5033431;28;20450;-71
2021/07/15 06:44:24;;;;;;;2.23;1.37;;;;;;;20.80;89.01;100708.16;5033257;28;20447;-71
2021/07/15 06:46:50;;;;;;;0.80;0.70;;;;;;;20.98;89.18;100713.97;5033301;28;20443;-71
2021/07/15 06:49:17;;;;;;;1.73;1.43;;;;;;;21.09;89.28;100715.75;5033171;28;20470;-71
2021/07/15 06:51:45;;;;;;;5.63;1.40;;;;;;;21.15;86.86;100714.25;5033262;28;20446;-70
2021/07/15 06:54:12;;;;;;;1.00;0.90;;;;;;;21.22;85.68;100719.09;5033208;28;20470;-71
2021/07/15 06:56:38;;;;;;;2.03;0.83;;;;;;;;;;5033104;28;20487;-71
2021/07/15 06:59:05;;;;;;;2.37;1.47;;;;;;;21.32;84.51;100715.72;5032776;28;20996;-71
2021/07/15 07:01:31;;;;;;;1.33;1.10;;;;;;;21.34;84.13;100716.19;5033168;28;20450;-70
2021/07/15 07:03:58;;;;;;;2.60;1.00;;;;;;;21.35;83.83;100715.00;5032388;28;20447;-70
2021/07/15 07:06:24;;;;;;;1.10;0.90;;;;;;;21.38;84.20;100721.72;5032827;28;20446;-70
2021/07/15 07:08:52;;;;;;;0.80;0.73;;;;;;;21.45;84.79;100721.03;5032954;28;20855;-70
2021/07/15 07:11:18;;;;;;;2.80;1.40;;;;;;;21.46;85.01;100717.91;5033038;28;20850;-70
2021/07/15 07:13:44;;;;;;;1.47;0.97;;;;;;;21.58;84.04;100714.16;5033079;28;20458;-71
2021/07/15 07:16:11;;;;;;;1.63;1.20;;;;;;;21.56;83.65;100716.47;5032940;28;20887;-70
2021/07/15 07:18:37;;;;;;;1.30;0.87;;;;;;;21.67;83.95;100723.72;5033010;28;20439;-70
2021/07/15 07:21:04;;;;;;;1.40;1.27;;;;;;;21.88;84.01;100731.50;5032906;28;20438;-70
2021/07/15 07:23:30;;;;;;;1.67;1.47;;;;;;;22.04;84.24;100725.75;5032794;28;20435;-71
2021/07/15 07:25:58;;;;;;;0.70;0.70;;;;;;;22.16;82.78;100728.31;5033289;28;20847;-69
2021/07/15 07:28:26;;;;;;;1.30;1.13;;;;;;;22.27;82.76;100722.94;5032883;28;20447;-71
2021/07/15 07:30:53;;;;;;;1.87;1.20;;;;;;;22.37;83.02;100727.78;5032605;28;21022;-70
2021/07/15 07:33:19;;;;;;;1.10;1.00;;;;;;;22.36;81.70;100720.66;5032855;28;20442;-70
2021/07/15 07:35:45;;;;;;;2.57;1.40;;;;;;;22.36;82.78;100715.16;5032820;28;20447;-71
2021/07/15 07:38:12;;;;;;;1.40;0.93;;;;;;;22.33;82.23;100728.91;5032706;28;20485;-71
2021/07/15 07:40:38;;;;;;;1.50;1.03;;;;;;;22.26;81.07;100726.06;5032805;28;20459;-71
2021/07/15 07:43:06;;;;;;;1.20;0.70;;;;;;;22.22;81.08;100734.28;5032463;28;20822;-71
2021/07/15 07:45:33;;;;;;;1.23;0.90;;;;;;;22.29;81.15;100733.59;5032992;28;20443;-71
2021/07/15 07:48:00;;;;;;;1.27;0.93;;;;;;;22.29;80.81;100728.84;5032780;28;20450;-71
2021/07/15 07:50:27;;;;;;;1.40;1.30;;;;;;;22.35;80.23;100729.31;5032919;28;20563;-70
2021/07/15 07:52:55;;;;;;;2.13;1.20;;;;;;;22.37;80.26;100722.25;5035730;28;20447;-70
2021/07/15 07:55:22;;;;;;;1.37;0.97;;;;;;;22.41;80.47;100719.53;5036429;28;20438;-71
2021/07/15 07:57:48;;;;;;;1.23;0.83;;;;;;;22.40;80.02;100720.69;5036166;28;20482;-69
2021/07/15 08:00:18;;;;;;;0.93;0.87;;;;;;;22.40;80.18;100715.97;5036042;28;20561;-69
2021/07/15 08:02:48;;;;;;;1.23;0.90;;;;;;;22.46;79.25;100713.66;5035910;28;20431;-69
2021/07/15 08:05:19;;;;;;;3.10;1.00;;;;;;;22.47;80.87;100715.25;5036212;28;20435;-69
2021/07/15 08:07:46;;;;;;;1.43;1.20;;;;;;;22.52;78.86;100712.13;5035829;28;20424;-69
2021/07/15 08:10:14;;;;;;;0.97;0.87;;;;;;;22.57;80.40;100714.56;5036027;28;20458;-69
2021/07/15 08:12:41;;;;;;;3.23;1.10;;;;;;;22.64;78.71;100716.59;5036060;28;20434;-71
2021/07/15 08:15:09;;;;;;;2.60;1.07;;;;;;;22.63;77.45;100715.03;5035655;28;20458;-69
2021/07/15 08:17:37;;;;;;;0.93;0.80;;;;;;;22.72;75.40;100715.50;5042119;28;20494;-71
2021/07/15 08:20:04;;;;;;;0.80;0.67;;;;;;;22.76;74.89;100721.06;5035314;28;20859;-70
2021/07/15 08:22:31;;;;;;;0.80;0.63;;;;;;;22.84;74.50;100717.16;5035924;28;20441;-69
2021/07/15 08:24:57;;;;;;;1.20;0.80;;;;;;;22.85;76.27;100724.31;5035087;28;20447;-70
2021/07/15 08:27:24;;;;;;;1.03;0.73;;;;;;;22.94;75.38;100724.81;5035972;28;20438;-69
2021/07/15 08:29:51;;;;;;;0.80;0.80;;;;;;;22.99;75.62;100707.88;5035454;28;20474;-71
2021/07/15 08:32:18;;;;;;;1.00;0.77;;;;;;;23.03;75.36;100710.66;5035751;28;20447;-71
2021/07/15 08:34:46;;;;;;;0.87;0.87;;;;;;;23.08;73.84;100711.09;5035671;28;20443;-70
2021/07/15 08:37:12;;;;;;;8.37;0.93;;;;;;;23.15;74.73;100715.88;5035347;28;20537;-70
2021/07/15 08:39:39;;;;;;;2.70;0.80;;;;;;;23.17;75.53;100719.84;5035234;28;20999;-71
2021/07/15 08:42:09;;;;;;;0.97;0.90;;;;;;;23.27;73.88;100717.53;5035361;28;20447;-71
2021/07/15 08:44:38;;;;;;;1.00;0.77;;;;;;;23.33;73.97;100722.34;5035330;28;20435;-71
2021/07/15 08:47:05;;;;;;;0.93;0.73;;;;;;;23.42;74.11;100719.25;5035474;28;20434;-70
2021/07/15 08:49:31;;;;;;;1.23;1.10;;;;;;;23.53;72.85;100724.81;5035400;28;20460;-70
2021/07/15 08:51:59;;;;;;;1.20;0.87;;;;;;;23.59;72.42;100737.88;5035496;28;20518;-70
2021/07/15 08:54:37;;;;;;;1.37;0.87;;;;;;;23.66;72.52;100726.13;5035554;28;20638;-72
2021/07/15 08:57:03;;;;;;;0.90;0.73;;;;;;;23.64;72.33;100722.91;5035313;28;20470;-70
2021/07/15 08:59:29;;;;;;;0.97;0.87;;;;;;;23.67;73.53;100720.19;5035051;28;20534;-71
2021/07/15 09:01:56;;;;;;;1.80;0.97;;;;;;;23.71;72.93;100727.72;5034780;28;20852;-72
2021/07/15 09:04:23;;;;;;;2.10;0.80;;;;;;;23.76;72.96;100728.13;5035282;28;20458;-71
2021/07/15 09:06:51;;;;;;;1.07;0.83;;;;;;;23.88;73.37;100727.81;5035137;28;20478;-71
2021/07/15 09:09:19;;;;;;;1.00;0.80;;;;;;;23.96;73.18;100738.94;5034680;28;20478;-71
2021/07/15 09:11:46;;;;;;;0.80;0.80;;;;;;;24.01;70.84;100736.56;5035340;28;20817;-71
2021/07/15 09:14:15;;;;;;;1.03;0.90;;;;;;;24.04;69.39;100740.50;5034966;28;20541;-69
2021/07/15 09:16:47;;;;;;;0.80;0.70;;;;;;;24.01;69.54;100746.84;5034827;28;20447;-69
2021/07/15 09:19:15;;;;;;;0.93;0.83;;;;;;;24.00;70.31;100743.28;5034898;28;20497;-69
2021/07/15 09:21:44;;;;;;;1.10;0.97;;;;;;;24.04;70.69;100749.63;5034822;28;20471;-69
2021/07/15 09:24:33;;;;;;;0.90;0.80;;;;;;;24.10;68.69;100750.03;5034951;28;20450;-70
2021/07/15 09:27:10;;;;;;;1.40;1.00;;;;;;;24.17;69.36;100750.88;5034839;28;20431;-69
2021/07/15 09:29:37;;;;;;;0.90;0.87;;;;;;;24.21;69.76;100755.63;5034409;28;20913;-69
2021/07/15 09:32:05;;;;;;;1.60;0.90;;;;;;;24.21;71.23;100753.63;5034604;28;20465;-69
2021/07/15 09:34:34;;;;;;;1.30;1.10;;;;;;;24.19;69.94;100756.00;5034603;28;20442;-69
2021/07/15 09:37:10;;;;;;;1.00;0.90;;;;;;;24.32;70.45;100764.75;5034477;28;20479;-69
2021/07/15 09:39:46;;;;;;;1.10;0.97;;;;;;;24.34;69.25;100756.84;5034583;28;20466;-70
2021/07/15 09:42:15;;;;;;;0.80;0.70;;;;;;;24.38;67.95;100752.16;5034463;28;20427;-69
2021/07/15 09:44:46;;;;;;;2.73;1.53;;;;;;;24.43;69.62;100760.06;5034463;28;20533;-69
2021/07/15 09:47:31;;;;;;;1.07;1.00;;;;;;;24.48;69.27;100756.13;5034399;28;20436;-70
2021/07/15 09:49:57;;;;;;;0.83;0.70;;;;;;;24.65;69.96;100763.69;5034259;28;20498;-70
2021/07/15 09:52:24;;;;;;;1.77;0.60;;;;;;;24.80;69.10;100762.53;5033935;28;20447;-69
2021/07/15 09:54:52;;;;;;;1.10;1.10;;;;;;;24.93;67.39;100765.72;5034191;28;20444;-69
2021/07/15 09:57:26;;;;;;;1.07;0.87;;;;;;;25.02;67.04;100770.88;5033741;28;20483;-70
2021/07/15 09:59:53;;;;;;;1.83;1.40;;;;;;;25.13;67.41;100766.94;5034084;28;20494;-70
2021/07/15 10:02:28;;;;;;;1.10;0.83;;;;;;;25.25;66.48;100765.75;5034022;28;20869;-70
2021/07/15 10:04:55;;;;;;;7.20;1.30;;;;;;;25.31;67.05;100769.69;5034125;28;20431;-70
2021/07/15 10:07:24;;;;;;;1.33;1.23;;;;;;;25.30;65.35;100762.56;5033876;28;20822;-70
2021/07/15 10:10:15;;;;;;;1.37;1.27;;;;;;;25.40;66.55;100764.53;5033515;28;21005;-70
2021/07/15 10:12:42;;;;;;;1.27;0.90;;;;;;;25.44;64.96;100763.75;5033625;28;20940;-72
2021/07/15 10:15:09;;;;;;;1.27;1.00;;;;;;;25.53;64.32;100753.03;5032808;28;20443;-71
2021/07/15 10:17:39;;;;;;;1.40;1.17;;;;;;;25.60;64.99;100745.50;5040539;28;20511;-71
2021/07/15 10:20:11;;;;;;;1.00;0.90;;;;;;;25.79;64.21;100740.72;5034047;28;20594;-70
2021/07/15 10:22:37;;;;;;;1.10;0.80;;;;;;;25.91;64.36;100748.63;5033364;28;20455;-71
2021/07/15 10:25:07;;;;;;;0.80;0.80;;;;;;;25.87;63.68;100745.84;5033713;28;20454;-70
2021/07/15 10:27:33;;;;;;;1.93;1.20;;;;;;;25.95;66.22;100746.63;5033665;28;20434;-71
2021/07/15 10:30:02;;;;;;;1.10;1.00;;;;;;;25.87;61.70;100745.84;5034672;28;20475;-71
2021/07/15 10:32:30;;;;;;;1.10;0.93;;;;;;;25.98;61.50;100762.44;5034003;28;20446;-71
2021/07/15 10:34:57;;;;;;;0.60;0.60;;;;;;;26.05;63.29;100758.88;5033130;28;20941;-72
2021/07/15 10:37:26;;;;;;;1.10;1.00;;;;;;;26.12;59.86;100764.41;5033357;28;20541;-71
2021/07/15 10:39:53;;;;;;;1.07;0.97;;;;;;;25.96;58.83;100761.28;5033337;28;20466;-71
2021/07/15 10:42:21;;;;;;;0.90;0.90;;;;;;;26.12;59.96;100761.63;5033068;28;20791;-71
2021/07/15 10:44:48;;;;;;;1.57;1.00;;;;;;;26.28;58.93;100764.72;5033370;28;20454;-71
2021/07/15 10:47:14;;;;;;;0.97;0.93;;;;;;;26.42;59.63;100752.72;5033373;28;20489;-71
2021/07/15 10:49:42;;;;;;;1.50;1.23;;;;;;;26.58;61.46;100766.19;5033289;28;20494;-72
2021/07/15 10:52:10;;;;;;;1.80;1.17;;;;;;;26.78;60.90;100769.22;5033298;28;20442;-71
2021/07/15 10:54:39;;;;;;;1.13;1.03;;;;;;;26.81;58.12;100774.75;5033318;28;20449;-72
2021/07/15 10:57:05;;;;;;;1.10;0.97;;;;;;;26.88;58.89;100762.81;5033115;28;20439;-72
2021/07/15 10:59:34;;;;;;;1.00;0.90;;;;;;;26.95;58.15;100768.28;5032810;28;20459;-71
2021/07/15 11:02:02;;;;;;;0.97;0.87;;;;;;;27.08;58.20;100766.59;5033380;28;20438;-71
2021/07/15 11:04:38;;;;;;;1.03;0.97;;;;;;;27.13;57.68;100765.41;5033218;28;20439;-72
2021/07/15 11:07:19;;;;;;;1.33;0.97;;;;;;;27.24;57.52;100768.91;5033197;28;20482;-72
2021/07/15 11:09:46;;;;;;;1.10;0.90;;;;;;;27.28;55.60;100766.88;5033121;28;20467;-71
2021/07/15 11:12:32;;;;;;;1.73;1.00;;;;;;;27.28;54.74;100769.66;5033071;28;20454;-71
2021/07/15 11:15:07;;;;;;;1.93;1.00;;;;;;;27.34;55.54;100779.13;5033028;28;20428;-71
2021/07/15 11:17:40;;;;;;;1.13;1.00;;;;;;;27.50;56.04;100770.25;5032973;28;20845;-70
2021/07/15 11:20:09;;;;;;;1.47;1.00;;;;;;;27.92;57.38;100771.78;5032792;28;20470;-69
2021/07/15 11:22:38;;;;;;;1.43;1.33;;;;;;;28.43;56.67;100763.63;5033020;28;20842;-72
2021/07/15 11:25:06;;;;;;;2.87;0.97;;;;;;;28.92;52.64;100770.47;5033078;28;20435;-72
2021/07/15 11:27:37;;;;;;;2.07;1.10;;;;;;;29.34;50.31;100759.03;5036923;28;20439;-71
2021/07/15 11:30:07;;;;;;;1.00;0.80;;;;;;;30.04;49.22;100778.47;5036530;28;20536;-71